Time;durP1;ratioP1;P1;durP2;ratioP2;P2;SDS_P1;SDS_P2;PMS_P1;PMS_P2;Temp;Humidity;BMP_temperature;BMP_pressure;BME280_temperature;BME280_humidity;BME280_pressure;Samples;Min_cycle;Max_cycle;Signal;HPM_P1;HPM_P2
2021/12/26 00:01:07;;;;;;;4.65;2.42;;;;;;;-11.01;70.24;97337.28;5053883;28;20177;-57
2021/12/26 00:03:34;;;;;;;3.05;2.38;;;;;;;-10.94;70.34;97327.28;5053658;28;20656;-57
2021/12/26 00:06:06;;;;;;;3.97;2.42;;;;;;;-11.02;70.57;97329.78;5053122;28;20087;-56
2021/12/26 00:08:33;;;;;;;3.70;2.35;;;;;;;-10.94;70.84;97331.56;5054141;28;20075;-56
2021/12/26 00:10:59;;;;;;;4.05;2.47;;;;;;;-10.84;71.01;97345.06;5053382;28;20165;-57
2021/12/26 00:13:25;;;;;;;6.10;2.28;;;;;;;-10.72;70.76;97336.16;5053916;28;20171;-56
2021/12/26 00:15:51;;;;;;;4.40;2.55;;;;;;;-10.52;70.17;97334.16;5052111;28;20041;-57
2021/12/26 00:18:17;;;;;;;6.53;3.20;;;;;;;-10.38;70.23;97338.72;5052455;28;20128;-56
2021/12/26 00:20:45;;;;;;;6.25;2.72;;;;;;;-10.12;70.10;97337.75;5053570;28;20108;-56
2021/12/26 00:23:11;;;;;;;4.78;2.65;;;;;;;-9.99;69.58;97335.56;5051923;28;20396;-54
2021/12/26 00:25:38;;;;;;;5.65;2.83;;;;;;;-9.88;69.44;97340.38;5051994;28;20045;-56
2021/12/26 00:28:03;;;;;;;5.20;3.03;;;;;;;-9.78;68.98;97336.88;5053421;28;20451;-58
2021/12/26 00:30:31;;;;;;;3.65;2.33;;;;;;;-9.87;68.56;97333.50;5052192;28;20136;-56
2021/12/26 00:32:59;;;;;;;5.22;2.47;;;;;;;-9.73;69.42;97332.88;5051501;28;20568;-58
2021/12/26 00:35:25;;;;;;;5.63;2.72;;;;;;;-9.59;69.11;97333.97;5035271;28;20071;-56
2021/12/26 00:37:52;;;;;;;6.15;3.15;;;;;;;-9.60;69.28;97337.50;5051966;28;20079;-57
2021/12/26 00:40:19;;;;;;;3.95;2.75;;;;;;;-9.52;68.77;97326.47;5053214;28;20067;-57
2021/12/26 00:42:46;;;;;;;3.53;2.35;;;;;;;-9.50;69.86;97330.47;5053225;28;20044;-57
2021/12/26 00:45:12;;;;;;;8.18;2.80;;;;;;;-9.35;69.81;97322.91;5052536;28;20568;-57
2021/12/26 00:47:41;;;;;;;3.75;2.80;;;;;;;-9.27;68.87;97319.53;5053357;28;20114;-56
2021/12/26 00:50:10;;;;;;;4.97;2.65;;;;;;;-9.22;69.17;97317.28;5053049;28;20465;-57
2021/12/26 00:52:37;;;;;;;3.60;2.43;;;;;;;-9.15;69.02;97302.81;5053874;28;20548;-56
2021/12/26 00:55:04;;;;;;;4.32;2.75;;;;;;;-9.16;68.84;97306.38;5051446;28;20287;-58
2021/12/26 00:57:30;;;;;;;4.47;2.78;;;;;;;-9.06;69.48;97304.41;5051643;28;20528;-57
2021/12/26 00:59:56;;;;;;;5.35;2.65;;;;;;;-8.99;68.30;97302.00;5034655;28;20041;-56
2021/12/26 01:02:22;;;;;;;3.67;2.60;;;;;;;-9.09;68.61;97294.47;5034916;28;20045;-57
2021/12/26 01:04:48;;;;;;;4.20;2.60;;;;;;;-9.28;68.69;97294.84;5066046;28;20036;-57
2021/12/26 01:07:40;;;;;;;3.97;2.70;;;;;;;-9.24;69.73;97296.09;5071385;28;20044;-58
2021/12/26 01:10:08;;;;;;;5.70;2.55;;;;;;;-9.21;68.68;97283.75;5071181;28;20074;-56
2021/12/26 01:12:35;;;;;;;4.30;1.95;;;;;;;-9.30;69.68;97264.19;5072018;28;20044;-58
2021/12/26 01:15:06;;;;;;;5.72;3.03;;;;;;;-9.37;69.21;97260.69;5071389;28;20044;-56
2021/12/26 01:17:44;;;;;;;3.90;2.47;;;;;;;-9.45;70.08;97264.06;5053944;28;20510;-57
2021/12/26 01:23:10;;;;;;;3.03;2.30;;;;;;;-9.59;70.12;97254.47;5072045;28;22376;-56
2021/12/26 01:25:37;;;;;;;4.13;2.60;;;;;;;-9.65;71.06;97262.81;5070795;28;20059;-56
2021/12/26 01:28:04;;;;;;;7.25;2.97;;;;;;;-9.68;71.27;97261.38;5070600;28;20040;-56
2021/12/26 01:30:32;;;;;;;8.20;2.90;;;;;;;-9.72;71.21;97249.06;5071058;28;20060;-58
2021/12/26 01:32:58;;;;;;;6.65;3.10;;;;;;;-9.78;71.33;97252.25;5070082;28;20061;-57
2021/12/26 01:35:47;;;;;;;5.30;2.72;;;;;;;-9.74;71.46;97248.41;5052315;28;20091;-57
2021/12/26 01:38:31;;;;;;;4.70;2.70;;;;;;;-9.70;71.99;97253.06;5070312;28;20106;-58
2021/12/26 01:41:23;;;;;;;4.93;2.90;;;;;;;-9.67;71.73;97246.81;5062922;28;20036;-56
2021/12/26 01:44:11;;;;;;;5.32;3.13;;;;;;;-9.75;72.08;97252.72;5061868;28;20048;-55
2021/12/26 01:46:46;;;;;;;6.07;2.60;;;;;;;-9.66;72.01;97248.41;5070718;28;20418;-55
2021/12/26 01:49:21;;;;;;;3.85;2.42;;;;;;;-9.65;71.77;97250.00;5070318;28;20044;-57
2021/12/26 01:51:50;;;;;;;3.80;2.63;;;;;;;-9.60;72.02;97245.97;5070334;28;20050;-55
2021/12/26 01:54:29;;;;;;;5.80;2.63;;;;;;;-9.55;71.69;97237.81;5070269;28;20037;-56
2021/12/26 01:56:56;;;;;;;3.17;2.22;;;;;;;-9.61;72.15;97233.34;5070473;28;20152;-56
2021/12/26 01:59:22;;;;;;;3.42;2.42;;;;;;;-9.61;71.84;97233.34;5053485;28;20036;-57
2021/12/26 02:01:55;;;;;;;3.63;2.33;;;;;;;-9.55;71.84;97231.88;5070425;28;20053;-57
2021/12/26 02:04:26;;;;;;;5.10;2.90;;;;;;;-9.53;72.70;97238.44;5022923;28;20045;-57
2021/12/26 02:06:52;;;;;;;6.20;3.28;;;;;;;-9.44;72.74;97224.66;5050384;28;20045;-54
2021/12/26 02:09:17;;;;;;;6.45;2.90;;;;;;;-9.35;72.88;97216.91;5046090;28;20052;-58
2021/12/26 02:11:43;;;;;;;4.00;2.45;;;;;;;-9.27;73.06;97216.91;5050230;28;20118;-56
2021/12/26 02:14:10;;;;;;;5.65;2.75;;;;;;;-9.18;72.64;97226.16;5050196;28;20514;-56
2021/12/26 02:16:57;;;;;;;4.07;2.90;;;;;;;-9.17;72.55;97209.81;5051274;28;20150;-55
2021/12/26 02:19:23;;;;;;;4.32;2.65;;;;;;;-9.16;72.40;97213.97;5017162;28;20117;-57
2021/12/26 02:22:05;;;;;;;4.72;3.03;;;;;;;-9.10;73.37;97212.50;5033558;28;20037;-56
2021/12/26 02:27:31;;;;;;;4.78;3.00;;;;;;;-9.08;73.20;97206.25;5033248;28;20041;-58
2021/12/26 02:30:09;;;;;;;7.55;3.58;;;;;;;-9.06;72.89;97200.94;5049830;28;20468;-57
2021/12/26 02:32:35;;;;;;;5.68;3.53;;;;;;;-9.06;73.04;97201.72;5049647;28;20056;-59
2021/12/26 02:35:01;;;;;;;6.53;3.50;;;;;;;-9.03;73.26;97204.00;5049906;28;20037;-56
2021/12/26 02:37:28;;;;;;;5.30;2.95;;;;;;;-9.03;73.37;97205.72;5051345;28;20049;-56
2021/12/26 02:39:54;;;;;;;5.03;2.88;;;;;;;-9.08;72.65;97197.75;5049793;28;20540;-59
2021/12/26 02:42:22;;;;;;;4.82;3.10;;;;;;;-9.07;73.05;97201.91;5049916;28;20139;-56
2021/12/26 02:44:49;;;;;;;4.57;2.80;;;;;;;-9.11;73.10;97201.44;5049739;28;20041;-56
2021/12/26 02:47:35;;;;;;;7.22;3.50;;;;;;;-9.11;72.72;97200.66;5049667;28;20053;-58
2021/12/26 02:50:06;;;;;;;4.63;2.85;;;;;;;-9.05;72.98;97194.84;5033084;28;20098;-56
2021/12/26 02:52:32;;;;;;;5.38;2.95;;;;;;;-9.08;73.38;97203.69;5049675;28;20048;-57
2021/12/26 02:54:59;;;;;;;5.43;2.83;;;;;;;-9.12;73.13;97199.84;5050023;28;20068;-56
2021/12/26 02:57:25;;;;;;;4.35;2.50;;;;;;;-9.10;74.17;97197.13;5049823;28;20047;-56
2021/12/26 02:59:51;;;;;;;3.10;2.35;;;;;;;-9.09;73.36;97202.06;5049636;28;20491;-56
2021/12/26 03:02:17;;;;;;;4.97;3.10;;;;;;;-9.13;74.10;97187.19;5049647;28;20098;-57
2021/12/26 03:04:43;;;;;;;3.92;2.75;;;;;;;-9.10;73.73;97186.84;5050484;28;20033;-57
2021/12/26 03:07:09;;;;;;;7.28;2.85;;;;;;;-9.10;74.45;97181.72;5049468;28;20045;-57
2021/12/26 03:09:44;;;;;;;8.25;3.30;;;;;;;-9.12;73.89;97192.13;5033058;28;20041;-57
2021/12/26 03:12:10;;;;;;;6.53;3.22;;;;;;;-9.10;74.15;97182.50;5050667;28;20063;-57
2021/12/26 03:14:38;;;;;;;5.78;2.78;;;;;;;-9.07;74.95;97182.19;5050625;28;20052;-55
2021/12/26 03:17:05;;;;;;;6.30;3.10;;;;;;;-9.05;74.62;97184.59;5049294;28;20049;-58
2021/12/26 03:19:32;;;;;;;6.72;3.03;;;;;;;-9.11;74.12;97183.47;5049404;28;20045;-57
2021/12/26 03:21:58;;;;;;;4.63;2.67;;;;;;;-9.07;75.41;97183.94;5049329;28;20623;-57
2021/12/26 03:24:23;;;;;;;4.50;3.20;;;;;;;-9.04;73.79;97179.28;5050115;28;20071;-57
2021/12/26 03:26:50;;;;;;;3.92;2.45;;;;;;;-8.99;74.90;97179.56;5036927;28;20049;-55
2021/12/26 03:29:17;;;;;;;6.88;3.17;;;;;;;-8.97;74.34;97171.69;5033019;28;20053;-56
2021/12/26 03:31:43;;;;;;;4.60;2.85;;;;;;;-8.96;74.87;97181.81;5050459;28;20056;-57
2021/12/26 03:34:09;;;;;;;4.63;2.83;;;;;;;-8.91;74.66;97173.63;5049341;28;20067;-54
2021/12/26 03:36:35;;;;;;;5.50;3.15;;;;;;;-8.87;74.36;97177.44;5049098;28;20041;-56
2021/12/26 03:39:01;;;;;;;6.00;2.95;;;;;;;-8.86;74.99;97173.09;5032899;28;20041;-58
2021/12/26 03:41:31;;;;;;;6.53;3.33;;;;;;;-8.89;74.03;97161.38;5036537;28;20052;-56
2021/12/26 03:43:59;;;;;;;4.28;2.35;;;;;;;-8.92;75.31;97169.44;5052690;28;20419;-56
2021/12/26 03:46:25;;;;;;;8.50;3.25;;;;;;;-8.90;74.78;97172.63;5035859;28;20380;-55
2021/12/26 03:48:52;;;;;;;5.20;3.05;;;;;;;-8.87;74.16;97166.38;5052672;28;20040;-56
2021/12/26 03:51:19;;;;;;;4.40;3.20;;;;;;;-8.79;73.68;97167.13;5062384;28;20179;-55
2021/12/26 03:53:47;;;;;;;5.75;3.28;;;;;;;-8.74;74.06;97172.53;5056331;28;20056;-56
2021/12/26 03:56:13;;;;;;;6.43;2.83;;;;;;;-8.60;73.69;97173.56;5074100;28;20120;-56
2021/12/26 03:58:53;;;;;;;5.30;3.33;;;;;;;-8.46;73.74;97175.41;5072816;28;20418;-56
2021/12/26 04:01:19;;;;;;;6.43;2.92;;;;;;;-8.49;73.24;97182.66;5056004;28;20037;-57
2021/12/26 04:03:45;;;;;;;5.97;2.88;;;;;;;-8.39;73.20;97177.28;5073922;28;20059;-59
2021/12/26 04:06:11;;;;;;;5.22;2.53;;;;;;;-8.32;73.95;97161.00;5055731;28;20040;-54
2021/12/26 04:08:44;;;;;;;3.30;2.42;;;;;;;-8.26;73.47;97175.72;5055908;28;20095;-58
2021/12/26 04:11:10;;;;;;;8.10;3.10;;;;;;;-8.10;73.52;97182.50;5072393;28;20047;-57
2021/12/26 04:13:36;;;;;;;5.15;2.83;;;;;;;-8.06;73.28;97173.50;5072497;28;20430;-57
2021/12/26 04:16:03;;;;;;;5.35;2.83;;;;;;;-7.94;73.44;97158.44;5072240;28;20087;-58
2021/12/26 04:18:29;;;;;;;5.15;2.63;;;;;;;-7.85;72.93;97159.16;5072518;28;20056;-58
2021/12/26 04:20:55;;;;;;;5.35;2.95;;;;;;;-7.86;72.64;97167.84;5072233;28;20395;-56
2021/12/26 04:23:25;;;;;;;;;;;;;;;-7.80;72.25;97152.50;5056160;28;20118;-57
2021/12/26 04:25:51;;;;;;;7.82;2.92;;;;;;;-7.93;73.09;97156.66;5055649;28;20350;-57
2021/12/26 04:28:19;;;;;;;7.97;3.25;;;;;;;-7.87;71.94;97153.38;5072287;28;20045;-57
2021/12/26 04:30:46;;;;;;;4.95;2.78;;;;;;;-7.91;72.80;97154.69;5071987;28;20040;-56
2021/12/26 04:33:12;;;;;;;5.32;2.67;;;;;;;-7.88;72.72;97170.59;5071689;28;20053;-56
2021/12/26 04:35:40;;;;;;;6.07;2.90;;;;;;;-7.76;73.04;97173.53;5071980;28;20040;-57
2021/12/26 04:38:05;;;;;;;5.35;3.20;;;;;;;-7.61;72.35;97189.78;5072024;28;20131;-57
2021/12/26 04:40:32;;;;;;;4.38;3.33;;;;;;;-7.50;71.58;97185.97;5071767;28;20052;-56
2021/12/26 04:43:23;;;;;;;5.93;3.13;;;;;;;-7.42;71.62;97203.09;5060658;28;20391;-56
2021/12/26 04:46:15;;;;;;;6.50;2.75;;;;;;;-7.25;71.64;97188.28;5039402;28;20075;-57
2021/12/26 04:48:44;;;;;;;5.68;2.80;;;;;;;-7.18;70.88;97195.09;5053444;28;20076;-55
2021/12/26 04:51:11;;;;;;;5.30;2.78;;;;;;;-7.20;70.63;97202.22;5051457;28;20462;-57
2021/12/26 04:53:38;;;;;;;4.40;2.67;;;;;;;-7.14;70.88;97200.72;5035132;28;20053;-56
2021/12/26 04:56:05;;;;;;;4.32;2.83;;;;;;;-7.15;71.14;97202.47;5051540;28;20045;-57
2021/12/26 04:58:31;;;;;;;5.28;3.00;;;;;;;-7.06;70.24;97200.59;5051706;28;20037;-55
2021/12/26 05:00:57;;;;;;;4.25;2.72;;;;;;;-7.03;70.33;97202.81;5052615;28;20506;-54
2021/12/26 05:03:23;;;;;;;6.80;2.85;;;;;;;-6.98;70.37;97192.78;5051196;28;20075;-56
2021/12/26 05:05:50;;;;;;;5.47;2.65;;;;;;;-6.91;70.84;97183.38;5052816;28;20394;-57
2021/12/26 05:08:16;;;;;;;5.63;3.00;;;;;;;-6.89;70.83;97201.19;5053062;28;20037;-57
2021/12/26 05:10:43;;;;;;;3.30;2.58;;;;;;;-6.81;70.87;97187.44;5053385;28;20048;-57
2021/12/26 05:13:09;;;;;;;4.45;2.60;;;;;;;-6.74;69.67;97201.97;5069948;28;20459;-57
2021/12/26 05:15:35;;;;;;;5.07;3.15;;;;;;;-6.63;70.59;97198.13;5071168;28;20071;-59
2021/12/26 05:18:01;;;;;;;5.68;2.63;;;;;;;-6.63;69.98;97186.03;5072651;28;20044;-56
2021/12/26 05:20:28;;;;;;;5.28;2.95;;;;;;;-6.67;69.90;97195.13;5071248;28;20032;-57
2021/12/26 05:22:55;;;;;;;4.90;3.10;;;;;;;-6.58;69.59;97195.81;5069193;28;20387;-56
2021/12/26 05:25:22;;;;;;;4.38;2.80;;;;;;;-6.61;69.56;97187.66;5070943;28;20090;-57
2021/12/26 05:27:51;;;;;;;6.15;3.03;;;;;;;-6.62;69.83;97199.72;5071099;28;20102;-53
2021/12/26 05:30:27;;;;;;;7.57;3.22;;;;;;;-6.52;69.96;97187.34;5053572;28;20072;-53
2021/12/26 05:33:34;;;;;;;6.07;2.63;;;;;;;-6.71;69.79;97159.59;5033329;28;20068;-55
2021/12/26 05:36:00;;;;;;;5.45;3.00;;;;;;;-6.45;69.94;97187.41;5050677;28;20055;-53
2021/12/26 05:38:29;;;;;;;3.83;2.72;;;;;;;-6.49;69.79;97183.63;5052046;28;20048;-57
2021/12/26 05:40:55;;;;;;;6.03;3.60;;;;;;;-6.59;69.91;97175.38;5071423;28;20037;-57
2021/12/26 05:43:22;;;;;;;6.35;3.10;;;;;;;-6.57;70.52;97166.47;5070836;28;20056;-58
2021/12/26 05:45:47;;;;;;;3.28;2.72;;;;;;;-6.55;69.80;97161.16;5070468;28;20049;-59
2021/12/26 05:48:21;;;;;;;3.50;2.55;;;;;;;-6.54;70.53;97171.25;5070864;28;20064;-58
2021/12/26 05:50:48;;;;;;;5.45;3.08;;;;;;;-6.49;69.94;97173.31;5070412;28;20052;-57
2021/12/26 05:53:32;;;;;;;6.65;3.03;;;;;;;-6.59;69.78;97172.78;5065499;28;20036;-59
2021/12/26 05:56:02;;;;;;;4.40;2.58;;;;;;;-6.72;69.60;97168.31;5068072;28;20420;-53
2021/12/26 05:58:35;;;;;;;5.15;3.20;;;;;;;-6.57;69.91;97163.09;5037624;28;20054;-56
2021/12/26 06:01:02;;;;;;;6.07;3.03;;;;;;;-6.59;70.69;97177.94;5062640;28;20090;-56
2021/12/26 06:03:28;;;;;;;5.38;2.67;;;;;;;-6.50;69.95;97172.50;5051336;28;20136;-56
2021/12/26 06:05:54;;;;;;;3.42;2.53;;;;;;;-6.48;69.61;97167.94;5050187;28;20132;-57
2021/12/26 06:08:26;;;;;;;4.53;2.67;;;;;;;-6.35;70.15;97171.63;5050499;28;20040;-56
2021/12/26 06:10:53;;;;;;;4.47;2.40;;;;;;;-6.33;69.23;97164.53;5050016;28;20510;-54
2021/12/26 06:13:18;;;;;;;3.35;2.63;;;;;;;-6.27;68.77;97167.16;5033648;28;20091;-56
2021/12/26 06:15:44;;;;;;;4.35;2.83;;;;;;;-6.25;69.39;97165.19;5051607;28;20040;-58
2021/12/26 06:18:10;;;;;;;4.63;2.50;;;;;;;-6.20;69.17;97170.59;5049848;28;20099;-56
2021/12/26 06:21:05;;;;;;;4.40;2.63;;;;;;;-6.14;69.22;97163.13;5047421;28;20099;-55
2021/12/26 06:23:53;;;;;;;5.93;2.97;;;;;;;-6.22;68.55;97162.25;5048624;28;20091;-55
2021/12/26 06:26:32;;;;;;;5.05;2.13;;;;;;;-6.28;69.50;97164.78;5048718;28;20045;-56
2021/12/26 06:29:01;;;;;;;5.95;2.85;;;;;;;-6.25;69.53;97165.19;5016381;28;20134;-55
2021/12/26 06:31:39;;;;;;;4.30;2.30;;;;;;;-6.07;69.48;97163.97;5048396;28;20049;-54
2021/12/26 06:34:23;;;;;;;5.55;2.75;;;;;;;-6.03;68.88;97166.00;5048600;28;20076;-57
2021/12/26 06:37:12;;;;;;;5.13;3.05;;;;;;;-6.06;68.38;97174.09;5021001;28;20517;-56
2021/12/26 06:39:59;;;;;;;5.13;3.40;;;;;;;-6.11;68.91;97171.28;5057606;28;20053;-55
2021/12/26 06:42:45;;;;;;;5.25;3.15;;;;;;;-5.99;68.44;97176.72;5054859;28;20045;-57
2021/12/26 06:45:29;;;;;;;5.68;3.05;;;;;;;-6.12;68.21;97166.28;5057510;28;20149;-56
2021/12/26 06:48:15;;;;;;;6.72;3.22;;;;;;;-6.08;67.59;97159.78;5052146;28;20063;-58
2021/12/26 06:50:44;;;;;;;5.88;2.70;;;;;;;-6.04;67.73;97161.00;5050953;28;20072;-56
2021/12/26 06:53:11;;;;;;;5.60;3.40;;;;;;;-6.09;67.33;97153.81;5050032;28;20072;-55
2021/12/26 06:55:37;;;;;;;4.30;2.58;;;;;;;-6.03;67.08;97168.56;5051192;28;20230;-56
2021/12/26 06:58:03;;;;;;;4.43;2.95;;;;;;;-6.03;67.35;97163.41;5049905;28;20095;-57
2021/12/26 07:00:29;;;;;;;4.82;2.60;;;;;;;-6.04;67.49;97159.22;5050779;28;20044;-57
2021/12/26 07:02:55;;;;;;;6.18;3.60;;;;;;;-6.03;67.25;97165.16;5033250;28;20052;-56
2021/12/26 07:05:21;;;;;;;4.28;2.83;;;;;;;-6.03;67.62;97166.00;5051949;28;20052;-56
2021/12/26 07:08:05;;;;;;;5.75;3.05;;;;;;;-6.07;68.06;97159.59;5049619;28;20051;-56
2021/12/26 07:10:31;;;;;;;17.67;4.05;;;;;;;-5.85;67.47;97173.25;5056129;28;20048;-56
2021/12/26 07:12:58;;;;;;;5.80;3.33;;;;;;;-5.79;66.75;97163.97;5056742;28;20514;-56
2021/12/26 07:15:32;;;;;;;8.07;3.47;;;;;;;-5.82;67.23;97165.13;5052954;28;20032;-55
2021/12/26 07:18:00;;;;;;;4.80;2.70;;;;;;;-5.81;66.07;97165.91;5060473;28;20044;-55
2021/12/26 07:20:29;;;;;;;6.45;3.08;;;;;;;-5.91;66.74;97173.16;5056692;28;20459;-56
2021/12/26 07:23:18;;;;;;;5.55;3.10;;;;;;;-6.04;66.82;97164.38;5058378;28;20103;-55
2021/12/26 07:25:47;;;;;;;4.95;3.45;;;;;;;-5.93;66.99;97171.59;5037506;28;20088;-57
2021/12/26 07:28:16;;;;;;;5.95;3.50;;;;;;;-5.84;66.47;97156.75;5018728;28;20147;-57
2021/12/26 07:31:03;;;;;;;5.85;3.35;;;;;;;-5.78;66.87;97161.16;5052845;28;20028;-56
2021/12/26 07:33:30;;;;;;;5.47;2.83;;;;;;;-5.86;66.28;97169.03;5046439;28;20049;-57
2021/12/26 07:36:00;;;;;;;;;;;;;;;-5.80;66.55;97167.50;5033126;28;20049;-58
2021/12/26 07:38:58;;;;;;;4.70;2.92;;;;;;;-5.81;66.32;97166.72;5033213;28;19924;-57
2021/12/26 07:41:27;;;;;;;5.13;2.83;;;;;;;-5.75;65.63;97168.53;5034624;28;20041;-56
2021/12/26 07:43:53;;;;;;;4.35;2.60;;;;;;;-5.73;65.16;97158.84;5039825;28;20053;-61
2021/12/26 07:46:38;;;;;;;4.25;2.63;;;;;;;-5.67;65.66;97165.03;5049292;28;20037;-54
2021/12/26 07:49:13;;;;;;;5.93;2.95;;;;;;;-5.72;65.58;97167.38;5039130;28;20600;-54
2021/12/26 07:51:58;;;;;;;6.68;2.97;;;;;;;-5.97;66.08;97167.00;5052729;28;20044;-59
2021/12/26 07:54:46;;;;;;;5.35;3.08;;;;;;;-5.96;66.63;97163.47;5049380;28;20145;-56
2021/12/26 07:57:31;;;;;;;6.03;2.78;;;;;;;-5.84;66.37;97156.75;5071227;28;20049;-58
2021/12/26 08:00:17;;;;;;;3.78;2.60;;;;;;;-5.92;66.10;97151.75;5054756;28;20037;-61
2021/12/26 08:02:55;;;;;;;6.97;3.10;;;;;;;-5.87;65.48;97149.41;5053142;28;20079;-58
2021/12/26 08:05:40;;;;;;;5.22;3.00;;;;;;;-5.82;65.45;97154.81;5049282;28;20367;-58
2021/12/26 08:08:23;;;;;;;8.18;3.10;;;;;;;-5.75;66.04;97149.69;5053780;28;20036;-55
2021/12/26 08:10:49;;;;;;;7.18;3.22;;;;;;;-5.55;65.87;97158.34;5052462;28;20460;-58
2021/12/26 08:13:16;;;;;;;4.63;2.95;;;;;;;-5.41;65.19;97151.47;5064369;28;20056;-56
2021/12/26 08:15:42;;;;;;;6.63;3.70;;;;;;;-5.37;65.54;97159.63;5055500;28;20049;-56
2021/12/26 08:18:08;;;;;;;5.13;2.83;;;;;;;-5.49;64.02;97159.38;5072312;28;20047;-53
2021/12/26 08:20:34;;;;;;;5.30;3.20;;;;;;;-5.40;64.35;97160.81;5072004;28;20405;-57
2021/12/26 08:23:01;;;;;;;4.03;2.50;;;;;;;-5.71;64.52;97138.81;5073773;28;20048;-61
2021/12/26 08:25:28;;;;;;;7.30;3.17;;;;;;;-5.57;65.06;97152.56;5050754;28;20045;-58
2021/12/26 08:27:54;;;;;;;9.57;3.20;;;;;;;-5.41;65.41;97150.66;5053463;28;20069;-56
2021/12/26 08:30:20;;;;;;;7.97;3.17;;;;;;;-5.35;64.13;97147.34;5051881;28;20131;-56
2021/12/26 08:32:50;;;;;;;6.75;3.20;;;;;;;-5.29;64.22;97149.94;5051778;28;20606;-57
2021/12/26 08:35:16;;;;;;;5.20;3.05;;;;;;;-5.17;65.00;97139.09;5052056;28;20044;-57
2021/12/26 08:37:42;;;;;;;4.70;2.80;;;;;;;-4.94;64.37;97137.00;5053387;28;20290;-56
2021/12/26 08:40:09;;;;;;;5.57;3.17;;;;;;;-4.92;63.75;97116.09;5053121;28;20041;-54
2021/12/26 08:42:34;;;;;;;4.00;2.92;;;;;;;-4.85;64.23;97125.47;5052062;28;20143;-58
2021/12/26 08:45:01;;;;;;;5.75;3.20;;;;;;;-4.78;64.21;97122.91;5052966;28;20120;-55
2021/12/26 08:47:26;;;;;;;6.45;3.80;;;;;;;-4.73;65.21;97122.34;5051950;28;20131;-56
2021/12/26 08:49:52;;;;;;;5.28;3.22;;;;;;;-4.80;64.27;97102.41;5034922;28;20140;-55
2021/12/26 08:52:18;;;;;;;5.25;2.90;;;;;;;-4.87;65.70;97104.19;5052804;28;20044;-55
2021/12/26 08:54:44;;;;;;;4.55;2.95;;;;;;;-4.91;65.18;97099.59;5053360;28;20049;-54
2021/12/26 08:57:10;;;;;;;5.10;3.13;;;;;;;-5.02;64.93;97099.19;5051657;28;20040;-54
2021/12/26 08:59:37;;;;;;;5.28;2.65;;;;;;;-5.10;63.92;97103.72;5052999;28;20533;-57
2021/12/26 09:02:07;;;;;;;5.70;3.10;;;;;;;-4.99;65.09;97092.84;5051571;28;20056;-56
2021/12/26 09:04:34;;;;;;;3.88;2.47;;;;;;;-4.93;64.01;97092.06;5051518;28;20507;-58
2021/12/26 09:07:00;;;;;;;7.80;3.17;;;;;;;-5.12;65.08;97057.41;5051573;28;20056;-56
2021/12/26 09:09:28;;;;;;;5.53;2.85;;;;;;;-5.01;63.91;97076.72;5051257;28;20033;-58
2021/12/26 09:11:55;;;;;;;5.30;2.90;;;;;;;-4.99;63.96;97092.06;5051197;28;20413;-58
2021/12/26 09:14:21;;;;;;;6.18;2.72;;;;;;;-4.99;63.26;97089.47;5052576;28;20128;-53
2021/12/26 09:16:47;;;;;;;3.75;2.78;;;;;;;-4.94;64.26;97085.31;5017872;28;20144;-54
2021/12/26 09:19:13;;;;;;;6.70;3.13;;;;;;;-5.07;63.30;97083.47;5051084;28;20036;-56
2021/12/26 09:21:39;;;;;;;5.97;3.45;;;;;;;-4.88;63.73;97070.78;5052572;28;20040;-57
2021/12/26 09:24:05;;;;;;;4.32;2.88;;;;;;;-4.82;63.66;97078.56;5052201;28;20423;-57
2021/12/26 09:26:32;;;;;;;4.93;3.28;;;;;;;-4.81;63.02;97074.19;5034260;28;20554;-53
2021/12/26 09:28:58;;;;;;;6.93;3.40;;;;;;;-4.80;64.36;97057.69;5034489;28;20126;-56
2021/12/26 09:31:25;;;;;;;4.57;2.67;;;;;;;-4.73;62.59;97076.59;5050692;28;20044;-57
2021/12/26 09:33:50;;;;;;;4.90;3.28;;;;;;;-4.83;63.66;97051.13;5051766;28;20086;-56
2021/12/26 09:36:17;;;;;;;4.75;2.90;;;;;;;-4.79;62.70;97056.72;5051029;28;20117;-57
2021/12/26 09:38:42;;;;;;;5.57;3.00;;;;;;;-4.99;63.62;97061.84;5051724;28;20614;-58
2021/12/26 09:41:09;;;;;;;5.32;3.10;;;;;;;-5.14;63.11;97069.75;5052244;28;20132;-56
2021/12/26 09:43:35;;;;;;;6.75;3.70;;;;;;;-5.03;63.36;97064.03;5052442;28;20048;-56
2021/12/26 09:46:00;;;;;;;5.20;3.00;;;;;;;-5.06;63.68;97066.19;5051873;28;20456;-55
2021/12/26 09:48:27;;;;;;;5.60;3.20;;;;;;;-5.03;64.59;97055.44;5052188;28;20128;-55
2021/12/26 09:50:52;;;;;;;6.35;3.45;;;;;;;-4.95;64.08;97051.91;5050468;28;20093;-57
2021/12/26 09:53:20;;;;;;;5.45;3.13;;;;;;;-4.94;63.52;97050.91;5052087;28;20056;-55
2021/12/26 09:55:46;;;;;;;5.95;3.53;;;;;;;-4.90;65.17;97047.75;5051708;28;20048;-55
2021/12/26 09:58:13;;;;;;;6.07;3.13;;;;;;;-4.64;64.24;97056.53;5051753;28;20053;-56
2021/12/26 10:00:42;;;;;;;7.70;3.45;;;;;;;-4.63;62.92;97052.94;5051342;28;20036;-56
2021/12/26 10:03:16;;;;;;;4.25;2.88;;;;;;;-4.78;63.19;97045.38;5051838;28;20443;-57
2021/12/26 10:05:59;;;;;;;9.05;3.53;;;;;;;-4.77;62.99;97041.00;5051253;28;20033;-59
2021/12/26 10:08:25;;;;;;;5.50;2.97;;;;;;;-4.88;64.29;97040.59;5050278;28;20045;-55
2021/12/26 10:11:14;;;;;;;6.55;3.55;;;;;;;-4.85;64.58;97032.44;5051133;28;20080;-56
2021/12/26 10:13:52;;;;;;;10.23;3.65;;;;;;;-4.74;64.85;97036.22;5050140;28;20503;-56
2021/12/26 10:16:20;;;;;;;7.35;3.50;;;;;;;-4.75;63.46;97031.25;5051035;28;20135;-54
2021/12/26 10:18:47;;;;;;;5.13;3.30;;;;;;;-4.76;63.86;97032.25;5050185;28;20094;-58
2021/12/26 10:21:30;;;;;;;3.83;2.90;;;;;;;-5.05;64.73;97027.25;5051040;28;20055;-55
2021/12/26 10:23:59;;;;;;;6.35;3.47;;;;;;;-4.94;65.13;97027.66;5051061;28;20112;-56
2021/12/26 10:26:29;;;;;;;5.57;3.17;;;;;;;-4.87;65.07;97018.91;5050618;28;20087;-58
2021/12/26 10:29:04;;;;;;;9.55;2.97;;;;;;;-4.91;63.99;97014.31;5050668;28;20041;-55
2021/12/26 10:31:29;;;;;;;5.43;3.33;;;;;;;-4.84;64.61;97005.59;5050568;28;20080;-55
2021/12/26 10:33:55;;;;;;;4.63;3.28;;;;;;;-4.77;64.12;97007.41;5050376;28;20080;-57
2021/12/26 10:36:21;;;;;;;6.03;3.53;;;;;;;-4.85;63.14;96996.28;5050600;28;20067;-56
2021/12/26 10:39:12;;;;;;;5.75;3.20;;;;;;;-4.81;64.92;96984.53;5051337;28;20040;-55
2021/12/26 10:42:05;;;;;;;5.82;3.40;;;;;;;-4.79;64.42;96986.94;5050165;28;20098;-54
2021/12/26 10:44:33;;;;;;;7.57;3.47;;;;;;;-4.82;64.57;96988.13;5049936;28;20131;-55
2021/12/26 10:47:05;;;;;;;9.25;3.83;;;;;;;-4.71;65.20;96975.59;5051125;28;20466;-54
2021/12/26 10:49:43;;;;;;;5.18;3.22;;;;;;;-4.64;64.04;96973.81;5052967;28;20556;-56
2021/12/26 10:52:12;;;;;;;6.72;3.97;;;;;;;-4.78;64.51;96974.81;5055382;28;20124;-54
2021/12/26 10:54:41;;;;;;;6.72;3.70;;;;;;;-4.70;64.98;96982.38;5055247;28;20040;-54
2021/12/26 10:57:12;;;;;;;5.38;3.33;;;;;;;-4.63;65.08;96977.97;5055068;28;20507;-57
2021/12/26 10:59:39;;;;;;;5.85;3.40;;;;;;;-4.50;64.76;96970.22;5055341;28;20114;-56
2021/12/26 11:02:06;;;;;;;6.43;3.28;;;;;;;-4.54;64.00;96969.00;5053533;28;20045;-56
2021/12/26 11:04:34;;;;;;;7.82;3.38;;;;;;;-4.48;64.30;96970.78;5055158;28;20068;-55
2021/12/26 11:07:10;;;;;;;4.95;3.40;;;;;;;-4.50;64.04;96967.63;5053568;28;20132;-56
2021/12/26 11:09:36;;;;;;;7.25;3.53;;;;;;;-4.63;64.86;96965.03;5055169;28;20495;-57
2021/12/26 11:12:09;;;;;;;6.20;4.10;;;;;;;-4.59;64.99;96968.81;5055029;28;20406;-54
2021/12/26 11:14:59;;;;;;;5.88;3.03;;;;;;;-4.63;65.26;96970.22;5054713;28;20510;-54
2021/12/26 11:17:29;;;;;;;6.25;3.75;;;;;;;-4.76;65.47;96972.78;5045956;28;20049;-54
2021/12/26 11:19:55;;;;;;;;;;;;;;;-4.62;65.33;96969.22;5037075;28;20238;-56
2021/12/26 11:22:23;;;;;;;7.20;3.33;;;;;;;-4.62;66.22;96969.22;5053702;28;19925;-55
2021/12/26 11:24:50;;;;;;;6.18;3.65;;;;;;;-4.74;65.72;96960.47;5054815;28;20044;-57
2021/12/26 11:27:16;;;;;;;6.38;3.42;;;;;;;-4.63;66.19;96957.28;5053451;28;20064;-54
2021/12/26 11:29:42;;;;;;;6.25;3.58;;;;;;;-4.50;67.26;96956.47;5054708;28;20506;-57
2021/12/26 11:32:08;;;;;;;6.38;3.20;;;;;;;-4.43;66.76;96942.56;5054217;28;20080;-56
2021/12/26 11:34:34;;;;;;;8.85;3.50;;;;;;;-4.51;65.89;96942.75;5053286;28;20041;-54
2021/12/26 11:37:00;;;;;;;7.15;3.85;;;;;;;-4.54;66.54;96940.56;5053057;28;20045;-56
2021/12/26 11:39:52;;;;;;;6.70;3.90;;;;;;;-4.89;67.14;96938.22;5051400;28;20183;-55
2021/12/26 11:43:05;;;;;;;6.15;3.53;;;;;;;-4.76;68.03;96934.84;5053363;28;20073;-55
2021/12/26 11:46:25;;;;;;;6.05;4.03;;;;;;;-4.69;68.35;96933.03;5044554;28;20170;-56
2021/12/26 11:49:34;;;;;;;7.88;3.72;;;;;;;-4.60;67.27;96934.41;5039014;28;20071;-55
2021/12/26 11:52:35;;;;;;;5.20;3.58;;;;;;;-4.65;67.75;96925.66;5054046;28;20048;-55
2021/12/26 11:56:02;;;;;;;8.55;4.18;;;;;;;-4.97;67.95;96915.19;5039364;28;20063;-52
2021/12/26 11:58:43;;;;;;;7.53;3.60;;;;;;;-4.91;69.02;96922.13;5054321;28;20053;-53